createdAt,value
2022-08-01T00:02:12.074Z,23.15
2022-08-01T00:10:21.618Z,23.74
2022-08-01T00:13:23.144Z,27.03
2022-08-01T00:15:54.165Z,23.92
2022-08-01T00:18:27.135Z,23.77
2022-08-01T00:20:54.829Z,24.05
2022-08-01T00:23:46.431Z,26.91
2022-08-01T00:26:15.122Z,27.07
2022-08-01T00:28:44.997Z,23.65
2022-08-01T00:31:13.503Z,25.61
2022-08-01T00:33:41.809Z,25.28
2022-08-01T00:36:10.102Z,26.88
2022-08-01T00:38:43.088Z,25.36
2022-08-01T00:41:11.400Z,24.63
2022-08-01T00:43:42.874Z,25.60
2022-08-01T00:46:13.025Z,26.77
2022-08-01T00:48:50.294Z,23.58
2022-08-01T00:51:18.490Z,25.00
2022-08-01T00:53:52.562Z,25.95
2022-08-01T00:56:24.697Z,27.01
2022-08-01T00:59:10.343Z,25.32
2022-08-01T01:01:40.613Z,27.03
2022-08-01T01:04:14.765Z,26.14
2022-08-01T01:06:58.167Z,26.36
2022-08-01T01:10:07.237Z,26.90
2022-08-01T01:12:50.373Z,26.96
2022-08-01T01:15:29.475Z,26.92
2022-08-01T01:18:06.462Z,26.86
2022-08-01T01:24:09.398Z,26.72
2022-08-01T01:27:02.316Z,26.28
2022-08-01T01:29:58.709Z,26.43
2022-08-01T01:32:30.770Z,26.54
2022-08-01T01:35:00.348Z,26.26
2022-08-01T01:37:29.672Z,23.96
2022-08-01T01:39:58.751Z,23.04
2022-08-01T01:42:28.252Z,25.54
2022-08-01T01:44:56.154Z,24.18
2022-08-01T01:55:51.453Z,22.76
2022-08-01T01:58:25.651Z,22.80
2022-08-01T02:00:59.907Z,23.16
2022-08-01T02:03:40.547Z,22.90
2022-08-01T02:06:09.957Z,22.56
2022-08-01T02:08:44.185Z,25.13
2022-08-01T02:57:51.608Z,26.32
2022-08-01T03:00:53.073Z,26.71
2022-08-01T03:03:26.097Z,26.16
2022-08-01T03:31:07.164Z,26.34
2022-08-01T03:34:32.658Z,26.32
2022-08-01T03:37:36.045Z,26.00
2022-08-01T03:44:44.212Z,26.19
2022-08-01T03:47:44.877Z,26.15
2022-08-01T03:54:47.586Z,25.79
2022-08-01T03:57:35.130Z,25.97
2022-08-01T04:04:09.248Z,25.15
2022-08-01T04:06:42.089Z,25.47
2022-08-01T04:09:13.399Z,25.73
2022-08-01T04:11:59.470Z,25.40
2022-08-01T04:22:43.145Z,26.21
2022-08-01T05:16:49.079Z,24.61
2022-08-01T05:22:02.354Z,25.60
2022-08-01T06:01:37.332Z,26.06
2022-08-01T06:04:07.865Z,21.46
2022-08-01T06:06:36.372Z,21.38
2022-08-01T06:20:39.435Z,22.37
2022-08-01T06:23:31.096Z,24.55
2022-08-01T06:26:04.091Z,22.35
2022-08-01T06:28:35.357Z,25.70
2022-08-01T06:31:04.570Z,24.52
2022-08-01T06:33:34.212Z,22.05
2022-08-01T06:36:15.738Z,23.22
2022-08-01T06:38:45.503Z,22.24
2022-08-01T06:41:28.620Z,25.71
2022-08-01T06:43:56.049Z,23.50
2022-08-01T06:46:56.810Z,25.50
2022-08-01T06:49:24.062Z,22.38
2022-08-01T06:52:00.272Z,24.49
2022-08-01T07:02:23.199Z,22.40
2022-08-01T07:04:52.157Z,25.09
2022-08-01T07:07:23.003Z,22.21
2022-08-01T07:10:14.214Z,25.59
2022-08-01T07:12:43.316Z,22.80
2022-08-01T07:15:16.076Z,21.14
2022-08-01T07:17:54.864Z,21.98
2022-08-01T07:20:22.450Z,24.23
2022-08-01T07:22:50.625Z,25.53
2022-08-01T07:30:33.955Z,22.48
2022-08-01T07:33:07.014Z,21.80
2022-08-01T07:35:35.352Z,22.33
2022-08-01T07:38:03.672Z,22.20
2022-08-01T07:40:31.268Z,24.85
2022-08-01T07:42:59.424Z,23.77
2022-08-01T07:45:37.349Z,24.39
2022-08-01T07:48:08.986Z,25.12
2022-08-01T07:50:36.925Z,23.19
2022-08-01T07:53:15.684Z,22.32
2022-08-01T07:55:42.635Z,22.58
2022-08-01T07:58:18.566Z,22.25
2022-08-01T08:00:50.823Z,21.59
2022-08-01T08:03:18.458Z,22.39
2022-08-01T08:05:58.443Z,21.88
2022-08-01T08:11:13.804Z,25.70
2022-08-01T08:13:43.866Z,22.17
2022-08-01T08:16:14.066Z,22.83
2022-08-01T08:18:41.687Z,26.12
2022-08-01T08:24:26.562Z,25.16
2022-08-01T08:27:02.301Z,25.37
2022-08-01T08:29:33.194Z,25.54
2022-08-01T08:32:03.048Z,25.42
2022-08-01T08:34:35.265Z,25.99
2022-08-01T08:37:04.174Z,26.33
2022-08-01T08:39:41.341Z,26.37
2022-08-01T08:42:11.079Z,25.98
2022-08-01T08:44:43.806Z,25.76
2022-08-01T08:47:19.000Z,24.91
2022-08-01T08:49:49.731Z,23.94
2022-08-01T08:52:20.827Z,23.98
2022-08-01T08:54:50.290Z,25.31
2022-08-01T08:57:20.215Z,23.79
2022-08-01T08:59:48.680Z,21.77
2022-08-01T09:02:15.511Z,23.52
2022-08-01T09:04:49.220Z,22.17
2022-08-01T09:07:16.297Z,21.44
2022-08-01T09:09:46.513Z,21.80
2022-08-01T09:12:18.642Z,23.69
2022-08-01T09:14:48.404Z,22.12
2022-08-01T09:17:15.757Z,21.58
2022-08-01T09:20:02.289Z,23.66
2022-08-01T09:22:34.081Z,21.81
2022-08-01T09:25:13.290Z,25.16
2022-08-01T09:27:44.457Z,25.68
2022-08-01T09:30:19.656Z,24.33
2022-08-01T09:33:18.069Z,25.57
2022-08-01T09:35:58.319Z,22.17
2022-08-01T09:38:30.422Z,23.81
2022-08-01T09:40:59.004Z,26.03
2022-08-01T09:43:31.567Z,22.03
2022-08-01T09:46:05.484Z,23.18
2022-08-01T09:48:34.151Z,24.68
2022-08-01T09:51:09.604Z,25.89
2022-08-01T09:53:53.415Z,27.32
2022-08-01T09:56:23.393Z,26.90
2022-08-01T09:59:02.757Z,26.27
2022-08-01T10:01:50.728Z,27.52
2022-08-01T10:04:20.951Z,27.15
2022-08-01T10:06:55.486Z,26.81
2022-08-01T10:09:35.947Z,27.53
2022-08-01T10:12:15.817Z,27.52
2022-08-01T10:14:46.128Z,27.15
2022-08-01T10:17:19.694Z,27.57
2022-08-01T10:19:48.106Z,27.29
2022-08-01T10:22:18.946Z,27.59
2022-08-01T10:24:51.356Z,27.31
2022-08-01T10:27:38.382Z,28.52
2022-08-01T10:30:21.533Z,28.76
2022-08-01T10:32:55.148Z,28.13
2022-08-01T10:35:46.076Z,28.78
2022-08-01T10:38:13.808Z,29.02
2022-08-01T10:40:43.133Z,29.52
2022-08-01T10:43:21.537Z,29.13
2022-08-01T10:46:04.617Z,27.23
2022-08-01T10:48:35.806Z,29.33
2022-08-01T10:51:05.272Z,29.41
2022-08-01T10:53:54.708Z,29.68
2022-08-01T10:56:27.043Z,29.34
2022-08-01T10:59:11.821Z,28.80
2022-08-01T11:01:44.889Z,26.41
2022-08-01T11:04:18.173Z,28.30
2022-08-01T11:07:25.696Z,27.76
2022-08-01T11:10:16.993Z,28.17
2022-08-01T11:12:56.493Z,29.63
2022-08-01T11:15:30.218Z,27.54
2022-08-01T11:18:00.497Z,30.39
2022-08-01T11:20:41.968Z,29.26
2022-08-01T11:23:13.850Z,30.83
2022-08-01T11:26:05.265Z,30.39
2022-08-01T11:28:36.895Z,29.55
2022-08-01T11:31:14.499Z,30.43
2022-08-01T11:33:45.782Z,28.58
2022-08-01T11:36:14.474Z,30.45
2022-08-01T11:38:45.661Z,29.41
2022-08-01T11:41:23.695Z,30.89
2022-08-01T11:44:32.083Z,30.55
2022-08-01T11:47:09.159Z,30.16
2022-08-01T11:49:49.037Z,30.66
2022-08-01T11:52:29.956Z,28.97
2022-08-01T11:55:10.365Z,30.62
2022-08-01T11:57:39.441Z,30.37
2022-08-01T12:00:15.428Z,28.34
2022-08-01T12:02:46.083Z,29.95
2022-08-01T12:05:24.983Z,29.71
2022-08-01T12:07:56.588Z,29.82
2022-08-01T12:10:49.341Z,30.31
2022-08-01T12:13:19.165Z,30.02
2022-08-01T12:15:47.604Z,30.08
2022-08-01T12:18:18.691Z,30.04
2022-08-01T12:20:57.060Z,28.97
2022-08-01T12:23:28.118Z,29.53
2022-08-01T12:25:57.219Z,29.72
2022-08-01T12:28:27.556Z,30.57
2022-08-01T12:30:56.905Z,30.39
2022-08-01T12:33:23.698Z,30.68
2022-08-01T12:35:54.051Z,30.58
2022-08-01T12:38:26.202Z,31.46
2022-08-01T12:40:54.780Z,30.21
2022-08-01T12:43:29.228Z,30.67
2022-08-01T12:46:00.219Z,30.25
2022-08-01T12:48:35.105Z,28.94
2022-08-01T12:51:04.898Z,29.44
2022-08-01T12:53:40.510Z,29.54
2022-08-01T12:56:11.817Z,29.66
2022-08-01T12:58:39.550Z,25.25
2022-08-01T13:24:27.917Z,29.44
2022-08-01T13:27:08.120Z,24.62
2022-08-01T13:29:44.508Z,26.10
2022-08-01T13:32:29.964Z,29.72
2022-08-01T13:35:09.452Z,28.66
2022-08-01T13:37:38.736Z,26.88
2022-08-01T13:40:08.328Z,26.43
2022-08-01T13:42:36.884Z,29.17
2022-08-01T13:45:13.912Z,29.24
2022-08-01T13:48:03.224Z,29.22
2022-08-01T13:50:32.386Z,29.10
2022-08-01T13:53:02.179Z,27.75
2022-08-01T13:55:34.501Z,28.46
2022-08-01T13:58:04.181Z,29.91
2022-08-01T14:00:31.741Z,28.67
2022-08-01T14:02:58.380Z,28.71
2022-08-01T14:05:25.364Z,29.22
2022-08-01T14:07:56.404Z,28.95
2022-08-01T14:10:24.795Z,28.79
2022-08-01T14:12:56.916Z,27.83
2022-08-01T14:15:38.893Z,29.01
2022-08-01T14:18:09.572Z,29.21
2022-08-01T14:20:39.992Z,28.99
2022-08-01T14:23:09.063Z,29.53
2022-08-01T14:26:03.013Z,29.62
2022-08-01T14:28:29.086Z,27.92
2022-08-01T14:31:00.308Z,29.08
2022-08-01T14:33:28.351Z,29.08
2022-08-01T14:36:37.557Z,28.97
2022-08-01T14:39:06.717Z,28.31
2022-08-01T14:41:35.578Z,27.26
2022-08-01T14:44:03.340Z,27.46
2022-08-01T14:46:31.498Z,28.77
2022-08-01T14:49:00.941Z,28.25
2022-08-01T14:51:28.736Z,27.72
2022-08-01T14:53:58.741Z,28.11
2022-08-01T14:56:39.311Z,28.62
2022-08-01T14:59:21.044Z,29.00
2022-08-01T15:01:49.743Z,26.88
2022-08-01T15:07:00.553Z,27.51
2022-08-01T15:09:28.839Z,26.63
2022-08-01T15:11:58.263Z,25.29
2022-08-01T15:14:45.360Z,28.67
2022-08-01T15:17:15.422Z,28.73
2022-08-01T15:19:43.046Z,28.17
2022-08-01T15:22:11.296Z,27.84
2022-08-01T15:24:55.364Z,28.21
2022-08-01T15:27:29.429Z,28.02
2022-08-01T15:30:27.295Z,24.87
2022-08-01T15:50:45.842Z,28.12
2022-08-01T15:53:23.576Z,27.33
2022-08-01T15:58:43.784Z,26.61
2022-08-01T16:04:08.786Z,27.69
2022-08-01T16:06:36.936Z,27.88
2022-08-01T16:17:33.260Z,25.44
2022-08-01T16:20:08.863Z,26.62
2022-08-01T16:22:45.279Z,26.05
2022-08-01T16:25:15.986Z,24.51
2022-08-01T16:27:47.008Z,24.11
2022-08-01T16:30:18.754Z,24.57
2022-08-01T16:32:52.088Z,27.05
2022-08-01T16:35:36.300Z,26.06
2022-08-01T16:38:17.837Z,24.42
2022-08-01T16:40:53.728Z,26.52
2022-08-01T16:43:25.222Z,26.21
2022-08-01T16:45:59.909Z,25.51
2022-08-01T16:48:30.362Z,27.30
2022-08-01T16:51:17.160Z,24.81
2022-08-01T16:53:50.870Z,26.30
2022-08-01T16:56:31.296Z,25.60
2022-08-01T16:59:04.645Z,25.28
2022-08-01T17:01:59.167Z,24.79
2022-08-01T17:13:12.115Z,26.95
2022-08-01T17:15:42.611Z,27.22
2022-08-01T17:26:54.955Z,27.16
2022-08-01T17:29:43.847Z,26.89
2022-08-01T17:32:21.258Z,25.52
2022-08-01T17:34:57.753Z,24.71
2022-08-01T17:38:03.833Z,25.17
2022-08-01T17:40:40.133Z,23.59
2022-08-01T17:43:08.144Z,27.14
2022-08-01T17:45:40.554Z,27.28
2022-08-01T17:48:25.499Z,26.72
2022-08-01T17:54:05.502Z,26.23
2022-08-01T17:56:36.237Z,26.36
2022-08-01T17:59:17.341Z,26.43
2022-08-01T18:01:45.060Z,25.92
2022-08-01T18:04:15.772Z,26.33
2022-08-01T18:06:58.470Z,26.54
2022-08-01T18:09:42.424Z,26.43
2022-08-01T18:12:15.155Z,25.22
2022-08-01T18:15:05.703Z,23.88
2022-08-01T18:17:37.711Z,26.60
2022-08-01T18:20:27.648Z,26.29
2022-08-01T18:23:11.789Z,26.49
2022-08-01T18:25:42.041Z,26.18
2022-08-01T18:28:29.909Z,26.28
2022-08-01T18:31:05.441Z,25.91
2022-08-01T18:33:32.689Z,25.43
2022-08-01T18:36:06.118Z,25.62
2022-08-01T18:38:41.310Z,26.07
2022-08-01T18:41:14.266Z,25.70
2022-08-01T18:48:59.388Z,25.88
2022-08-01T18:51:28.905Z,25.15
2022-08-01T18:53:57.887Z,25.75
2022-08-01T18:56:26.331Z,25.27
2022-08-01T18:58:57.765Z,24.44
2022-08-01T19:04:16.367Z,22.42
2022-08-01T19:06:47.533Z,21.42
2022-08-01T19:09:20.715Z,21.93
2022-08-01T19:11:56.290Z,22.89
2022-08-01T19:14:31.926Z,21.65
2022-08-01T19:17:00.090Z,22.35
2022-08-01T19:19:29.533Z,23.12
2022-08-01T19:21:57.308Z,23.04
2022-08-01T19:24:28.588Z,23.96
2022-08-01T19:27:05.257Z,21.00
2022-08-01T19:29:41.410Z,24.85
2022-08-01T19:35:17.385Z,23.75
2022-08-01T19:37:52.489Z,23.27
2022-08-01T19:40:48.977Z,24.64
2022-08-01T19:43:26.744Z,20.98
2022-08-01T19:46:18.122Z,20.08
2022-08-01T19:49:02.056Z,23.11
2022-08-01T19:52:04.703Z,24.33
2022-08-01T19:54:46.762Z,20.53
2022-08-01T19:57:45.035Z,22.22
2022-08-01T20:00:29.339Z,23.79
2022-08-01T20:03:02.397Z,24.23
2022-08-01T20:05:42.473Z,24.33
2022-08-01T20:08:16.925Z,24.10
2022-08-01T20:10:51.307Z,24.06
2022-08-01T20:13:23.762Z,23.87
2022-08-01T20:15:58.081Z,23.16
2022-08-01T20:18:42.377Z,20.01
2022-08-01T20:21:21.178Z,22.63
2022-08-01T20:23:53.686Z,20.24
2022-08-01T20:26:54.235Z,23.11
2022-08-01T20:29:41.916Z,20.28
2022-08-01T20:32:21.659Z,20.50
2022-08-01T20:35:51.658Z,19.83
2022-08-01T20:38:07.314Z,19.84
2022-08-01T20:47:15.175Z,19.43
2022-08-01T20:49:46.766Z,19.63
2022-08-01T20:52:21.592Z,19.44
2022-08-01T20:54:52.990Z,19.45
2022-08-01T20:57:32.859Z,21.13
2022-08-01T21:00:06.700Z,19.75
2022-08-01T21:03:16.736Z,23.28
2022-08-01T21:05:59.152Z,20.40
2022-08-01T21:09:05.392Z,19.10
2022-08-01T21:12:01.632Z,19.20
2022-08-01T21:15:03.500Z,21.45
2022-08-01T21:20:43.862Z,22.89
2022-08-01T21:23:58.379Z,22.75
2022-08-01T21:27:33.602Z,19.26
2022-08-01T21:30:10.065Z,18.21
2022-08-01T21:32:45.577Z,22.53
2022-08-01T21:35:25.231Z,20.23
2022-08-01T21:38:02.428Z,19.40
2022-08-01T21:40:35.975Z,18.04
2022-08-01T21:43:10.948Z,19.21
2022-08-01T21:45:57.952Z,21.57
2022-08-01T21:52:05.564Z,19.26
2022-08-01T21:55:15.700Z,18.78
2022-08-01T21:58:46.720Z,22.40
2022-08-01T22:02:01.770Z,18.07
2022-08-01T22:05:16.864Z,22.24
2022-08-01T22:08:04.583Z,22.26
2022-08-01T22:10:40.279Z,18.47
2022-08-01T22:13:27.838Z,22.20
2022-08-01T22:16:08.357Z,18.52
2022-08-01T22:18:54.253Z,22.26
2022-08-01T22:22:45.205Z,22.07
2022-08-01T22:25:15.754Z,22.03
2022-08-01T22:28:06.171Z,18.11
2022-08-01T22:30:49.409Z,19.74
2022-08-01T22:33:23.023Z,18.20
2022-08-01T22:36:06.244Z,19.05
2022-08-01T22:38:41.672Z,20.60
2022-08-01T22:41:30.407Z,20.60
2022-08-01T22:44:30.891Z,21.05
2022-08-01T22:47:12.200Z,19.52
2022-08-01T22:50:36.133Z,17.61
2022-08-01T22:53:44.566Z,21.49
2022-08-01T22:56:18.212Z,18.42
2022-08-01T22:58:55.721Z,18.91
2022-08-01T23:01:33.354Z,21.49
2022-08-01T23:04:13.048Z,17.62
2022-08-01T23:07:13.337Z,21.57
2022-08-01T23:09:54.345Z,20.45
2022-08-01T23:12:31.563Z,18.83
2022-08-01T23:15:22.270Z,17.76
2022-08-01T23:17:57.044Z,21.38
2022-08-01T23:20:30.776Z,17.52
2022-08-01T23:23:31.275Z,17.57
2022-08-01T23:26:32.989Z,21.20
2022-08-01T23:29:13.903Z,19.05
2022-08-01T23:32:02.472Z,19.58
2022-08-01T23:35:39.187Z,20.77
2022-08-01T23:39:07.070Z,20.87
2022-08-01T23:42:32.232Z,20.85
2022-08-01T23:45:02.913Z,16.98
2022-08-01T23:47:38.782Z,20.88
2022-08-01T23:50:09.365Z,16.95
2022-08-01T23:53:09.336Z,17.31
2022-08-01T23:55:44.539Z,20.72
2022-08-01T23:58:16.913Z,20.80
